sensor_id;sensor_type;location;lat;lon;timestamp;pressure;altitude;pressure_sealevel;temperature;humidity
43488;BME280;29078;41.932;25.554;2023-06-01T00:00:07;99604.03;;;19.62;61.20
43488;BME280;29078;41.932;25.554;2023-06-01T00:02:35;99607.50;;;19.62;60.54
43488;BME280;29078;41.932;25.554;2023-06-01T00:05:00;99608.00;;;19.59;61.21
43488;BME280;29078;41.932;25.554;2023-06-01T00:07:26;99606.81;;;19.55;61.29
43488;BME280;29078;41.932;25.554;2023-06-01T00:09:51;99613.91;;;19.50;61.80
43488;BME280;29078;41.932;25.554;2023-06-01T00:12:16;99613.31;;;19.48;60.94
43488;BME280;29078;41.932;25.554;2023-06-01T00:14:42;99607.84;;;19.43;61.60
43488;BME280;29078;41.932;25.554;2023-06-01T00:17:07;99620.31;;;19.37;62.07
43488;BME280;29078;41.932;25.554;2023-06-01T00:19:32;99617.16;;;19.40;61.28
43488;BME280;29078;41.932;25.554;2023-06-01T00:21:59;99617.16;;;19.40;61.29
43488;BME280;29078;41.932;25.554;2023-06-01T00:24:25;99614.03;;;19.43;60.99
43488;BME280;29078;41.932;25.554;2023-06-01T00:26:50;99614.59;;;19.45;60.86
43488;BME280;29078;41.932;25.554;2023-06-01T00:29:16;99612.50;;;19.47;61.15
43488;BME280;29078;41.932;25.554;2023-06-01T00:31:41;99613.91;;;19.38;61.92
43488;BME280;29078;41.932;25.554;2023-06-01T00:34:07;99620.09;;;19.39;61.15
43488;BME280;29078;41.932;25.554;2023-06-01T00:36:32;99627.31;;;19.38;61.56
43488;BME280;29078;41.932;25.554;2023-06-01T00:38:58;99619.84;;;19.40;61.52
43488;BME280;29078;41.932;25.554;2023-06-01T00:41:30;99622.06;;;19.43;60.87
43488;BME280;29078;41.932;25.554;2023-06-01T00:43:55;99622.53;;;19.40;60.89
43488;BME280;29078;41.932;25.554;2023-06-01T00:46:20;99614.00;;;19.31;61.71
43488;BME280;29078;41.932;25.554;2023-06-01T00:48:46;99619.69;;;19.23;61.58
43488;BME280;29078;41.932;25.554;2023-06-01T00:51:11;99615.88;;;19.19;62.05
43488;BME280;29078;41.932;25.554;2023-06-01T00:53:40;99620.53;;;19.24;61.67
43488;BME280;29078;41.932;25.554;2023-06-01T00:56:05;99610.97;;;19.28;61.78
43488;BME280;29078;41.932;25.554;2023-06-01T00:58:31;99615.28;;;19.29;61.48
43488;BME280;29078;41.932;25.554;2023-06-01T01:03:45;99623.06;;;19.19;61.41
43488;BME280;29078;41.932;25.554;2023-06-01T01:06:15;99621.81;;;19.21;61.88
43488;BME280;29078;41.932;25.554;2023-06-01T01:09:06;99625.63;;;19.25;61.66
43488;BME280;29078;41.932;25.554;2023-06-01T01:11:32;99625.88;;;19.24;61.96
43488;BME280;29078;41.932;25.554;2023-06-01T01:14:02;99624.47;;;19.21;61.83
43488;BME280;29078;41.932;25.554;2023-06-01T01:16:31;99624.25;;;19.23;62.03
43488;BME280;29078;41.932;25.554;2023-06-01T01:19:03;99624.81;;;19.25;61.13
43488;BME280;29078;41.932;25.554;2023-06-01T01:29:28;99626.22;;;19.27;60.99
43488;BME280;29078;41.932;25.554;2023-06-01T01:31:56;99631.69;;;19.21;61.46
43488;BME280;29078;41.932;25.554;2023-06-01T01:34:23;99621.81;;;19.21;61.06
43488;BME280;29078;41.932;25.554;2023-06-01T01:36:49;99626.00;;;19.17;61.50
43488;BME280;29078;41.932;25.554;2023-06-01T01:39:15;99621.09;;;19.14;61.35
43488;BME280;29078;41.932;25.554;2023-06-01T01:41:40;99629.13;;;19.14;61.44
43488;BME280;29078;41.932;25.554;2023-06-01T01:44:05;99632.97;;;19.18;60.71
43488;BME280;29078;41.932;25.554;2023-06-01T01:46:32;99631.09;;;19.19;61.20
43488;BME280;29078;41.932;25.554;2023-06-01T01:52:01;99617.84;;;19.24;60.99
43488;BME280;29078;41.932;25.554;2023-06-01T01:54:31;99630.19;;;19.25;61.16
43488;BME280;29078;41.932;25.554;2023-06-01T01:56:59;99627.50;;;19.25;61.23
43488;BME280;29078;41.932;25.554;2023-06-01T01:59:26;99634.94;;;19.23;60.99
43488;BME280;29078;41.932;25.554;2023-06-01T02:01:52;99643.09;;;19.16;61.09
43488;BME280;29078;41.932;25.554;2023-06-01T02:04:17;99637.25;;;19.08;61.07
43488;BME280;29078;41.932;25.554;2023-06-01T02:06:42;99637.16;;;19.02;61.13
43488;BME280;29078;41.932;25.554;2023-06-01T02:09:08;99644.59;;;19.00;60.88
43488;BME280;29078;41.932;25.554;2023-06-01T02:11:34;99635.63;;;18.95;61.06
43488;BME280;29078;41.932;25.554;2023-06-01T02:13:59;99640.03;;;18.89;61.25
43488;BME280;29078;41.932;25.554;2023-06-01T02:16:24;99640.13;;;18.83;61.50
43488;BME280;29078;41.932;25.554;2023-06-01T02:18:50;99645.72;;;18.81;61.18
43488;BME280;29078;41.932;25.554;2023-06-01T02:21:16;99655.94;;;18.84;61.28
43488;BME280;29078;41.932;25.554;2023-06-01T02:23:41;99638.03;;;18.85;60.99
43488;BME280;29078;41.932;25.554;2023-06-01T02:26:07;99645.03;;;18.86;60.90
43488;BME280;29078;41.932;25.554;2023-06-01T02:28:33;99646.88;;;18.85;60.77
43488;BME280;29078;41.932;25.554;2023-06-01T02:30:58;99642.44;;;18.79;60.62
43488;BME280;29078;41.932;25.554;2023-06-01T02:33:23;99651.16;;;18.75;60.88
43488;BME280;29078;41.932;25.554;2023-06-01T02:35:50;99647.19;;;18.65;61.38
43488;BME280;29078;41.932;25.554;2023-06-01T02:38:15;99641.47;;;18.62;61.19
43488;BME280;29078;41.932;25.554;2023-06-01T02:40:40;99645.81;;;18.56;61.59
43488;BME280;29078;41.932;25.554;2023-06-01T02:43:06;99644.16;;;18.62;61.41
43488;BME280;29078;41.932;25.554;2023-06-01T02:45:31;99643.09;;;18.63;61.38
43488;BME280;29078;41.932;25.554;2023-06-01T02:47:56;99646.59;;;18.63;61.42
43488;BME280;29078;41.932;25.554;2023-06-01T02:50:21;99649.28;;;18.63;61.23
43488;BME280;29078;41.932;25.554;2023-06-01T02:52:47;99644.34;;;18.60;61.63
43488;BME280;29078;41.932;25.554;2023-06-01T02:55:13;99654.66;;;18.57;61.49
43488;BME280;29078;41.932;25.554;2023-06-01T02:57:38;99652.16;;;18.62;61.08
43488;BME280;29078;41.932;25.554;2023-06-01T03:00:04;99658.75;;;18.59;61.26
43488;BME280;29078;41.932;25.554;2023-06-01T03:02:30;99655.56;;;18.51;61.61
43488;BME280;29078;41.932;25.554;2023-06-01T03:04:55;99647.75;;;18.49;61.05
43488;BME280;29078;41.932;25.554;2023-06-01T03:07:20;99650.31;;;18.44;61.65
43488;BME280;29078;41.932;25.554;2023-06-01T03:09:45;99652.03;;;18.38;61.89
43488;BME280;29078;41.932;25.554;2023-06-01T03:12:11;99649.56;;;18.37;61.55
43488;BME280;29078;41.932;25.554;2023-06-01T03:14:36;99654.09;;;18.36;62.03
43488;BME280;29078;41.932;25.554;2023-06-01T03:17:01;99649.66;;;18.30;62.24
43488;BME280;29078;41.932;25.554;2023-06-01T03:19:26;99661.63;;;18.28;61.77
43488;BME280;29078;41.932;25.554;2023-06-01T03:21:52;99661.41;;;18.29;62.05
43488;BME280;29078;41.932;25.554;2023-06-01T03:24:17;99666.75;;;18.29;62.12
43488;BME280;29078;41.932;25.554;2023-06-01T03:26:43;99664.97;;;18.23;62.10
43488;BME280;29078;41.932;25.554;2023-06-01T03:29:08;99666.59;;;18.24;61.88
43488;BME280;29078;41.932;25.554;2023-06-01T03:31:33;99664.50;;;18.26;61.77
43488;BME280;29078;41.932;25.554;2023-06-01T03:34:02;99668.00;;;18.27;62.00
43488;BME280;29078;41.932;25.554;2023-06-01T03:36:27;99660.44;;;18.24;61.88
43488;BME280;29078;41.932;25.554;2023-06-01T03:38:52;99667.19;;;18.26;61.69
43488;BME280;29078;41.932;25.554;2023-06-01T03:41:18;99668.00;;;18.27;61.67
43488;BME280;29078;41.932;25.554;2023-06-01T03:43:43;99668.38;;;18.30;61.77
43488;BME280;29078;41.932;25.554;2023-06-01T03:46:08;99661.53;;;18.34;61.51
43488;BME280;29078;41.932;25.554;2023-06-01T03:48:34;99665.75;;;18.42;61.59
43488;BME280;29078;41.932;25.554;2023-06-01T03:50:59;99675.19;;;18.45;61.36
43488;BME280;29078;41.932;25.554;2023-06-01T03:53:24;99677.41;;;18.48;61.23
43488;BME280;29078;41.932;25.554;2023-06-01T03:55:50;99673.09;;;18.47;61.15
43488;BME280;29078;41.932;25.554;2023-06-01T03:58:16;99676.59;;;18.47;61.25
43488;BME280;29078;41.932;25.554;2023-06-01T04:00:44;99678.22;;;18.48;61.10
43488;BME280;29078;41.932;25.554;2023-06-01T04:03:11;99676.94;;;18.51;61.26
43488;BME280;29078;41.932;25.554;2023-06-01T04:05:36;99683.25;;;18.56;61.06
43488;BME280;29078;41.932;25.554;2023-06-01T04:08:02;99682.44;;;18.56;61.38
43488;BME280;29078;41.932;25.554;2023-06-01T04:10:27;99676.66;;;18.59;60.88
43488;BME280;29078;41.932;25.554;2023-06-01T04:12:52;99675.63;;;18.60;60.58
43488;BME280;29078;41.932;25.554;2023-06-01T04:15:18;99680.34;;;18.58;61.00
43488;BME280;29078;41.932;25.554;2023-06-01T04:17:44;99675.00;;;18.58;61.01
43488;BME280;29078;41.932;25.554;2023-06-01T04:20:10;99680.31;;;18.64;60.71
43488;BME280;29078;41.932;25.554;2023-06-01T04:22:36;99680.78;;;18.61;60.94
43488;BME280;29078;41.932;25.554;2023-06-01T04:25:03;99683.00;;;18.64;60.59
43488;BME280;29078;41.932;25.554;2023-06-01T04:27:29;99687.06;;;18.67;60.53
43488;BME280;29078;41.932;25.554;2023-06-01T04:29:54;99689.88;;;18.72;60.33
43488;BME280;29078;41.932;25.554;2023-06-01T04:32:19;99691.16;;;18.69;60.79
43488;BME280;29078;41.932;25.554;2023-06-01T04:34:47;99689.16;;;18.65;60.75
43488;BME280;29078;41.932;25.554;2023-06-01T04:37:15;99684.97;;;18.69;60.96
43488;BME280;29078;41.932;25.554;2023-06-01T04:39:40;99689.44;;;18.75;60.42
43488;BME280;29078;41.932;25.554;2023-06-01T04:42:07;99683.75;;;18.83;60.42
43488;BME280;29078;41.932;25.554;2023-06-01T04:44:33;99685.75;;;18.88;60.62
43488;BME280;29078;41.932;25.554;2023-06-01T04:46:59;99684.47;;;18.90;60.62
43488;BME280;29078;41.932;25.554;2023-06-01T04:49:28;99689.50;;;18.98;60.48
43488;BME280;29078;41.932;25.554;2023-06-01T04:51:53;99688.00;;;19.02;60.32
43488;BME280;29078;41.932;25.554;2023-06-01T04:54:19;99693.47;;;19.08;60.31
43488;BME280;29078;41.932;25.554;2023-06-01T04:56:44;99702.09;;;19.10;60.48
43488;BME280;29078;41.932;25.554;2023-06-01T04:59:09;99694.75;;;19.17;60.31
43488;BME280;29078;41.932;25.554;2023-06-01T05:01:35;99701.41;;;19.26;60.62
43488;BME280;29078;41.932;25.554;2023-06-01T05:04:03;99698.28;;;19.29;60.74
43488;BME280;29078;41.932;25.554;2023-06-01T05:06:29;99704.00;;;19.32;60.71
43488;BME280;29078;41.932;25.554;2023-06-01T05:08:54;99697.97;;;19.37;60.71
43488;BME280;29078;41.932;25.554;2023-06-01T05:11:19;99698.53;;;19.39;60.87
43488;BME280;29078;41.932;25.554;2023-06-01T05:13:46;99701.94;;;19.46;60.96
43488;BME280;29078;41.932;25.554;2023-06-01T05:16:12;99697.31;;;19.53;60.64
43488;BME280;29078;41.932;25.554;2023-06-01T05:18:37;99704.19;;;19.61;60.87
43488;BME280;29078;41.932;25.554;2023-06-01T05:21:03;99702.19;;;19.68;60.05
43488;BME280;29078;41.932;25.554;2023-06-01T05:23:28;99712.22;;;19.73;60.61
43488;BME280;29078;41.932;25.554;2023-06-01T05:25:54;99703.72;;;19.76;61.16
43488;BME280;29078;41.932;25.554;2023-06-01T05:28:28;99708.72;;;19.84;60.41
43488;BME280;29078;41.932;25.554;2023-06-01T05:30:53;99706.72;;;19.91;60.43
43488;BME280;29078;41.932;25.554;2023-06-01T05:33:19;99709.50;;;19.96;60.54
43488;BME280;29078;41.932;25.554;2023-06-01T05:35:44;99709.63;;;20.01;60.09
43488;BME280;29078;41.932;25.554;2023-06-01T05:38:09;99709.72;;;20.06;60.21
43488;BME280;29078;41.932;25.554;2023-06-01T05:40:35;99709.88;;;20.11;60.40
43488;BME280;29078;41.932;25.554;2023-06-01T05:43:01;99714.28;;;20.17;60.26
43488;BME280;29078;41.932;25.554;2023-06-01T05:45:26;99711.22;;;20.25;59.86
43488;BME280;29078;41.932;25.554;2023-06-01T05:47:51;99714.50;;;20.27;60.49
43488;BME280;29078;41.932;25.554;2023-06-01T05:50:16;99715.66;;;20.31;60.13
43488;BME280;29078;41.932;25.554;2023-06-01T05:52:42;99712.84;;;20.38;59.67
43488;BME280;29078;41.932;25.554;2023-06-01T05:55:07;99714.00;;;20.42;59.83
43488;BME280;29078;41.932;25.554;2023-06-01T05:57:33;99713.88;;;20.49;59.47
43488;BME280;29078;41.932;25.554;2023-06-01T05:59:58;99710.47;;;20.53;59.40
43488;BME280;29078;41.932;25.554;2023-06-01T06:02:23;99711.97;;;20.61;60.07
43488;BME280;29078;41.932;25.554;2023-06-01T06:04:48;99706.94;;;20.65;59.38
43488;BME280;29078;41.932;25.554;2023-06-01T06:07:14;99706.22;;;20.69;59.89
43488;BME280;29078;41.932;25.554;2023-06-01T06:09:39;99701.03;;;20.79;59.68
43488;BME280;29078;41.932;25.554;2023-06-01T06:12:05;99714.09;;;20.87;59.17
43488;BME280;29078;41.932;25.554;2023-06-01T06:14:31;99710.22;;;20.95;59.10
43488;BME280;29078;41.932;25.554;2023-06-01T06:16:56;99713.06;;;21.05;58.62
43488;BME280;29078;41.932;25.554;2023-06-01T06:19:22;99713.72;;;21.12;58.10
43488;BME280;29078;41.932;25.554;2023-06-01T06:21:47;99708.19;;;21.19;57.92
43488;BME280;29078;41.932;25.554;2023-06-01T06:24:12;99711.47;;;21.21;57.99
43488;BME280;29078;41.932;25.554;2023-06-01T06:26:38;99717.75;;;21.27;57.84
43488;BME280;29078;41.932;25.554;2023-06-01T06:29:03;99719.13;;;21.29;57.70
43488;BME280;29078;41.932;25.554;2023-06-01T06:31:28;99717.03;;;21.31;57.55
43488;BME280;29078;41.932;25.554;2023-06-01T06:33:53;99715.72;;;21.34;57.69
43488;BME280;29078;41.932;25.554;2023-06-01T06:36:19;99717.91;;;21.37;57.66
43488;BME280;29078;41.932;25.554;2023-06-01T06:38:44;99710.25;;;21.45;57.58
43488;BME280;29078;41.932;25.554;2023-06-01T06:41:10;99709.22;;;21.46;57.64
43488;BME280;29078;41.932;25.554;2023-06-01T06:43:35;99709.53;;;21.50;57.80
43488;BME280;29078;41.932;25.554;2023-06-01T06:46:01;99709.41;;;21.56;57.81
43488;BME280;29078;41.932;25.554;2023-06-01T06:48:26;99711.34;;;21.61;57.64
43488;BME280;29078;41.932;25.554;2023-06-01T06:50:51;99702.78;;;21.64;57.80
43488;BME280;29078;41.932;25.554;2023-06-01T06:53:16;99707.19;;;21.70;57.72
43488;BME280;29078;41.932;25.554;2023-06-01T06:55:43;99711.06;;;21.79;57.21
43488;BME280;29078;41.932;25.554;2023-06-01T06:58:09;99700.97;;;21.86;56.46
43488;BME280;29078;41.932;25.554;2023-06-01T07:00:35;99707.22;;;21.92;56.72
43488;BME280;29078;41.932;25.554;2023-06-01T07:03:01;99711.09;;;22.01;56.64
43488;BME280;29078;41.932;25.554;2023-06-01T07:05:26;99709.63;;;22.10;56.46
43488;BME280;29078;41.932;25.554;2023-06-01T07:07:51;99704.88;;;22.17;56.35
43488;BME280;29078;41.932;25.554;2023-06-01T07:10:17;99705.75;;;22.23;55.88
43488;BME280;29078;41.932;25.554;2023-06-01T07:12:42;99698.81;;;22.27;55.26
43488;BME280;29078;41.932;25.554;2023-06-01T07:15:07;99701.91;;;22.36;55.68
43488;BME280;29078;41.932;25.554;2023-06-01T07:17:33;99706.53;;;22.40;55.77
43488;BME280;29078;41.932;25.554;2023-06-01T07:19:59;99699.03;;;22.42;55.73
43488;BME280;29078;41.932;25.554;2023-06-01T07:22:24;99697.78;;;22.50;55.61
43488;BME280;29078;41.932;25.554;2023-06-01T07:24:50;99697.31;;;22.58;56.17
43488;BME280;29078;41.932;25.554;2023-06-01T07:27:16;99704.69;;;22.68;55.54
43488;BME280;29078;41.932;25.554;2023-06-01T07:29:42;99700.72;;;22.75;55.77
43488;BME280;29078;41.932;25.554;2023-06-01T07:32:09;99697.78;;;22.77;55.55
43488;BME280;29078;41.932;25.554;2023-06-01T07:34:34;99702.44;;;22.81;55.26
43488;BME280;29078;41.932;25.554;2023-06-01T07:37:00;99701.41;;;22.88;54.20
43488;BME280;29078;41.932;25.554;2023-06-01T07:39:25;99703.59;;;22.91;53.88
43488;BME280;29078;41.932;25.554;2023-06-01T07:41:51;99706.91;;;22.98;54.06
43488;BME280;29078;41.932;25.554;2023-06-01T07:44:18;99704.22;;;22.98;52.87
43488;BME280;29078;41.932;25.554;2023-06-01T07:46:45;99708.28;;;23.00;52.66
43488;BME280;29078;41.932;25.554;2023-06-01T07:49:10;99702.72;;;23.07;52.90
43488;BME280;29078;41.932;25.554;2023-06-01T07:51:38;99697.16;;;23.19;52.97
43488;BME280;29078;41.932;25.554;2023-06-01T07:54:04;99700.44;;;23.26;53.28
43488;BME280;29078;41.932;25.554;2023-06-01T07:56:29;99701.84;;;23.33;52.94
43488;BME280;29078;41.932;25.554;2023-06-01T07:58:54;99704.84;;;23.37;52.15
43488;BME280;29078;41.932;25.554;2023-06-01T08:01:19;99698.94;;;23.40;51.45
43488;BME280;29078;41.932;25.554;2023-06-01T08:03:45;99701.63;;;23.40;51.35
43488;BME280;29078;41.932;25.554;2023-06-01T08:06:10;99689.81;;;23.46;52.05
43488;BME280;29078;41.932;25.554;2023-06-01T08:08:36;99692.25;;;23.48;50.94
43488;BME280;29078;41.932;25.554;2023-06-01T08:11:01;99692.34;;;23.58;52.12
43488;BME280;29078;41.932;25.554;2023-06-01T08:13:27;99684.84;;;23.65;52.12
43488;BME280;29078;41.932;25.554;2023-06-01T08:15:52;99687.56;;;23.70;52.43
43488;BME280;29078;41.932;25.554;2023-06-01T08:18:18;99692.25;;;23.80;52.09
43488;BME280;29078;41.932;25.554;2023-06-01T08:20:44;99692.56;;;23.88;51.11
43488;BME280;29078;41.932;25.554;2023-06-01T08:23:10;99692.59;;;23.93;49.31
43488;BME280;29078;41.932;25.554;2023-06-01T08:25:36;99693.72;;;24.02;49.58
43488;BME280;29078;41.932;25.554;2023-06-01T08:28:19;99694.56;;;24.13;49.31
43488;BME280;29078;41.932;25.554;2023-06-01T08:30:45;99686.75;;;24.17;49.75
43488;BME280;29078;41.932;25.554;2023-06-01T08:33:11;99686.53;;;24.23;49.00
43488;BME280;29078;41.932;25.554;2023-06-01T08:35:36;99681.44;;;24.32;48.93
43488;BME280;29078;41.932;25.554;2023-06-01T08:38:01;99689.59;;;24.42;47.07
43488;BME280;29078;41.932;25.554;2023-06-01T08:40:27;99682.03;;;24.49;48.64
43488;BME280;29078;41.932;25.554;2023-06-01T08:45:18;99671.06;;;24.71;47.73
43488;BME280;29078;41.932;25.554;2023-06-01T08:47:44;99674.03;;;24.85;47.06
43488;BME280;29078;41.932;25.554;2023-06-01T08:50:10;99667.06;;;24.99;46.49
43488;BME280;29078;41.932;25.554;2023-06-01T08:52:36;99665.97;;;25.15;46.20
43488;BME280;29078;41.932;25.554;2023-06-01T08:55:03;99663.84;;;25.32;45.49
43488;BME280;29078;41.932;25.554;2023-06-01T08:57:28;99658.16;;;25.44;43.91
43488;BME280;29078;41.932;25.554;2023-06-01T08:59:54;99658.94;;;25.55;46.93
43488;BME280;29078;41.932;25.554;2023-06-01T09:02:20;99657.28;;;25.64;42.37
43488;BME280;29078;41.932;25.554;2023-06-01T09:04:45;99661.38;;;25.72;44.85
43488;BME280;29078;41.932;25.554;2023-06-01T09:07:11;99654.84;;;25.83;44.83
43488;BME280;29078;41.932;25.554;2023-06-01T09:09:36;99655.06;;;25.96;42.30
43488;BME280;29078;41.932;25.554;2023-06-01T09:14:45;99657.91;;;26.36;42.03
43488;BME280;29078;41.932;25.554;2023-06-01T09:17:14;99649.44;;;26.52;42.81
43488;BME280;29078;41.932;25.554;2023-06-01T09:19:43;99655.03;;;26.66;42.20
43488;BME280;29078;41.932;25.554;2023-06-01T09:22:09;99650.31;;;26.87;39.92
43488;BME280;29078;41.932;25.554;2023-06-01T09:24:35;99649.88;;;27.09;42.01
43488;BME280;29078;41.932;25.554;2023-06-01T09:27:00;99647.94;;;27.14;40.50
43488;BME280;29078;41.932;25.554;2023-06-01T09:29:26;99647.31;;;27.22;40.63
43488;BME280;29078;41.932;25.554;2023-06-01T09:31:51;99640.72;;;27.34;38.60
43488;BME280;29078;41.932;25.554;2023-06-01T09:34:20;99643.25;;;27.49;39.79
43488;BME280;29078;41.932;25.554;2023-06-01T09:36:49;99636.94;;;27.64;40.29
43488;BME280;29078;41.932;25.554;2023-06-01T09:39:16;99645.41;;;27.81;40.52
43488;BME280;29078;41.932;25.554;2023-06-01T09:49:23;99644.41;;;28.43;37.46
43488;BME280;29078;41.932;25.554;2023-06-01T09:51:50;99638.00;;;28.53;37.30
43488;BME280;29078;41.932;25.554;2023-06-01T09:54:25;99638.75;;;28.59;36.85
43488;BME280;29078;41.932;25.554;2023-06-01T09:56:51;99633.38;;;28.72;37.28
43488;BME280;29078;41.932;25.554;2023-06-01T09:59:17;99632.41;;;28.82;36.68
43488;BME280;29078;41.932;25.554;2023-06-01T10:01:42;99623.53;;;28.95;35.77
43488;BME280;29078;41.932;25.554;2023-06-01T10:04:08;99629.31;;;29.07;31.55
43488;BME280;29078;41.932;25.554;2023-06-01T10:06:39;99620.00;;;29.27;31.98
43488;BME280;29078;41.932;25.554;2023-06-01T10:09:06;99613.41;;;29.47;32.98
43488;BME280;29078;41.932;25.554;2023-06-01T10:11:38;99612.31;;;29.62;33.84
43488;BME280;29078;41.932;25.554;2023-06-01T10:14:03;99610.91;;;29.78;32.22
43488;BME280;29078;41.932;25.554;2023-06-01T10:16:28;99604.34;;;29.93;34.08
43488;BME280;29078;41.932;25.554;2023-06-01T10:18:54;99611.13;;;30.09;34.72
43488;BME280;29078;41.932;25.554;2023-06-01T10:21:19;99607.47;;;30.14;32.64
43488;BME280;29078;41.932;25.554;2023-06-01T10:23:45;99606.81;;;30.30;31.06
43488;BME280;29078;41.932;25.554;2023-06-01T10:26:11;99608.50;;;30.40;34.21
43488;BME280;29078;41.932;25.554;2023-06-01T10:28:37;99607.28;;;30.46;32.20
43488;BME280;29078;41.932;25.554;2023-06-01T10:33:53;99600.53;;;30.80;33.41
43488;BME280;29078;41.932;25.554;2023-06-01T10:36:18;99594.84;;;30.90;30.15
43488;BME280;29078;41.932;25.554;2023-06-01T10:38:44;99595.69;;;30.99;30.29
43488;BME280;29078;41.932;25.554;2023-06-01T10:41:24;99594.13;;;31.07;31.94
43488;BME280;29078;41.932;25.554;2023-06-01T10:43:50;99589.16;;;31.09;29.09
43488;BME280;29078;41.932;25.554;2023-06-01T10:49:00;99598.03;;;31.14;32.14
43488;BME280;29078;41.932;25.554;2023-06-01T10:51:25;99576.44;;;30.73;33.49
43488;BME280;29078;41.932;25.554;2023-06-01T10:53:51;99584.31;;;30.39;32.30
43488;BME280;29078;41.932;25.554;2023-06-01T10:56:21;99583.69;;;30.06;33.15
43488;BME280;29078;41.932;25.554;2023-06-01T11:01:44;99576.41;;;30.01;29.09
43488;BME280;29078;41.932;25.554;2023-06-01T11:04:10;99577.03;;;29.70;33.14
43488;BME280;29078;41.932;25.554;2023-06-01T11:06:36;99568.97;;;29.65;32.64
43488;BME280;29078;41.932;25.554;2023-06-01T11:09:03;99564.94;;;29.63;29.97
43488;BME280;29078;41.932;25.554;2023-06-01T11:14:17;99560.31;;;29.77;32.98
43488;BME280;29078;41.932;25.554;2023-06-01T11:16:42;99565.81;;;30.13;33.57
43488;BME280;29078;41.932;25.554;2023-06-01T11:19:08;99566.13;;;30.48;34.23
43488;BME280;29078;41.932;25.554;2023-06-01T11:21:35;99562.38;;;30.80;31.21
43488;BME280;29078;41.932;25.554;2023-06-01T11:24:05;99564.81;;;31.12;31.58
43488;BME280;29078;41.932;25.554;2023-06-01T11:26:32;99559.03;;;31.36;31.29
43488;BME280;29078;41.932;25.554;2023-06-01T11:29:05;99550.25;;;31.56;29.66
43488;BME280;29078;41.932;25.554;2023-06-01T11:31:34;99542.06;;;31.56;30.85
43488;BME280;29078;41.932;25.554;2023-06-01T11:34:01;99542.06;;;31.56;30.44
43488;BME280;29078;41.932;25.554;2023-06-01T11:36:26;99532.75;;;31.49;28.79
43488;BME280;29078;41.932;25.554;2023-06-01T11:38:52;99537.84;;;31.42;30.47
43488;BME280;29078;41.932;25.554;2023-06-01T11:41:21;99517.94;;;31.41;30.52
43488;BME280;29078;41.932;25.554;2023-06-01T11:43:57;99526.25;;;31.27;29.63
43488;BME280;29078;41.932;25.554;2023-06-01T11:46:23;99519.59;;;30.89;32.07
43488;BME280;29078;41.932;25.554;2023-06-01T11:49:02;99521.22;;;30.90;32.61
43488;BME280;29078;41.932;25.554;2023-06-01T11:51:32;99512.63;;;30.74;31.59
43488;BME280;29078;41.932;25.554;2023-06-01T11:54:01;99513.97;;;30.41;31.45
43488;BME280;29078;41.932;25.554;2023-06-01T11:56:33;99501.53;;;30.26;31.40
43488;BME280;29078;41.932;25.554;2023-06-01T11:59:03;99497.00;;;30.44;31.53
43488;BME280;29078;41.932;25.554;2023-06-01T12:01:42;99489.25;;;30.82;31.12
43488;BME280;29078;41.932;25.554;2023-06-01T12:04:17;99485.38;;;31.14;28.33
43488;BME280;29078;41.932;25.554;2023-06-01T12:06:43;99484.44;;;31.49;29.94
43488;BME280;29078;41.932;25.554;2023-06-01T12:09:10;99477.84;;;31.59;27.27
43488;BME280;29078;41.932;25.554;2023-06-01T12:11:36;99471.13;;;31.56;29.33
43488;BME280;29078;41.932;25.554;2023-06-01T12:14:02;99468.91;;;31.84;29.05
43488;BME280;29078;41.932;25.554;2023-06-01T12:19:15;99461.06;;;32.09;29.58
43488;BME280;29078;41.932;25.554;2023-06-01T12:21:46;99462.97;;;31.82;27.06
43488;BME280;29078;41.932;25.554;2023-06-01T12:24:11;99454.38;;;31.41;30.16
43488;BME280;29078;41.932;25.554;2023-06-01T12:26:37;99455.06;;;31.64;29.93
43488;BME280;29078;41.932;25.554;2023-06-01T12:29:03;99447.06;;;31.93;28.60
43488;BME280;29078;41.932;25.554;2023-06-01T12:31:28;99446.44;;;31.87;29.69
43488;BME280;29078;41.932;25.554;2023-06-01T12:33:54;99441.06;;;31.39;30.65
43488;BME280;29078;41.932;25.554;2023-06-01T12:36:30;99446.38;;;31.44;32.09
43488;BME280;29078;41.932;25.554;2023-06-01T12:38:59;99441.78;;;31.71;30.25
43488;BME280;29078;41.932;25.554;2023-06-01T12:41:25;99443.41;;;31.98;31.68
43488;BME280;29078;41.932;25.554;2023-06-01T12:43:50;99441.16;;;32.08;31.37
43488;BME280;29078;41.932;25.554;2023-06-01T12:46:23;99436.16;;;32.28;26.29
43488;BME280;29078;41.932;25.554;2023-06-01T12:48:49;99432.94;;;32.34;27.55
43488;BME280;29078;41.932;25.554;2023-06-01T12:51:14;99415.22;;;32.49;27.92
43488;BME280;29078;41.932;25.554;2023-06-01T12:53:40;99418.94;;;32.36;26.48
43488;BME280;29078;41.932;25.554;2023-06-01T12:56:07;99416.66;;;32.46;28.55
43488;BME280;29078;41.932;25.554;2023-06-01T12:58:33;99425.22;;;32.36;29.02
43488;BME280;29078;41.932;25.554;2023-06-01T13:00:58;99429.25;;;32.04;28.36
43488;BME280;29078;41.932;25.554;2023-06-01T13:03:23;99422.03;;;31.91;31.20
43488;BME280;29078;41.932;25.554;2023-06-01T13:05:49;99418.50;;;31.99;28.54
43488;BME280;29078;41.932;25.554;2023-06-01T13:08:18;99410.63;;;32.15;28.12
43488;BME280;29078;41.932;25.554;2023-06-01T13:10:44;99408.34;;;32.34;28.25
43488;BME280;29078;41.932;25.554;2023-06-01T13:13:09;99413.81;;;32.34;29.76
43488;BME280;29078;41.932;25.554;2023-06-01T13:15:39;99408.94;;;32.48;29.78
43488;BME280;29078;41.932;25.554;2023-06-01T13:18:04;99404.88;;;32.63;26.90
43488;BME280;29078;41.932;25.554;2023-06-01T13:20:29;99403.44;;;32.57;29.16
43488;BME280;29078;41.932;25.554;2023-06-01T13:22:54;99404.41;;;32.61;29.26
43488;BME280;29078;41.932;25.554;2023-06-01T13:25:20;99400.53;;;32.62;27.00